createdAt,value
2022-08-31T00:02:01.960Z,44.52
2022-08-31T00:04:32.035Z,44.27
2022-08-31T00:07:00.262Z,45.17
2022-08-31T00:09:31.099Z,44.84
2022-08-31T00:11:59.379Z,44.59
2022-08-31T00:14:28.657Z,44.96
2022-08-31T00:16:56.971Z,46.63
2022-08-31T00:19:25.438Z,49.73
2022-08-31T00:21:53.697Z,51.77
2022-08-31T00:24:21.922Z,53.75
2022-08-31T00:26:51.372Z,54.06
2022-08-31T00:29:19.847Z,55.38
2022-08-31T00:31:48.230Z,55.66
2022-08-31T00:34:16.621Z,57.57
2022-08-31T00:36:47.322Z,57.96
2022-08-31T00:39:15.936Z,60.20
2022-08-31T00:41:44.547Z,62.90
2022-08-31T00:44:15.096Z,63.71
2022-08-31T00:46:45.222Z,64.87
2022-08-31T00:49:17.599Z,65.75
2022-08-31T00:51:50.012Z,65.59
2022-08-31T00:54:21.473Z,66.26
2022-08-31T00:56:49.968Z,68.03
2022-08-31T00:59:21.798Z,69.20
2022-08-31T01:01:50.585Z,68.58
2022-08-31T01:04:19.483Z,69.08
2022-08-31T01:06:49.246Z,68.05
2022-08-31T01:09:17.945Z,67.13
2022-08-31T01:11:46.729Z,66.91
2022-08-31T01:14:15.777Z,67.23
2022-08-31T01:16:50.788Z,67.69
2022-08-31T01:19:33.639Z,68.37
2022-08-31T01:22:14.866Z,69.98
2022-08-31T01:24:48.670Z,70.73
2022-08-31T01:27:24.357Z,70.12
2022-08-31T01:29:54.595Z,70.01
2022-08-31T01:32:22.755Z,70.15
2022-08-31T01:34:51.032Z,70.24
2022-08-31T01:37:19.621Z,69.76
2022-08-31T01:39:58.956Z,69.56
2022-08-31T01:42:30.913Z,70.06
2022-08-31T01:45:02.574Z,70.10
2022-08-31T01:47:30.718Z,70.03
2022-08-31T01:49:58.878Z,69.95
2022-08-31T01:52:28.022Z,70.39
2022-08-31T01:54:58.514Z,70.14
2022-08-31T01:57:34.233Z,69.88
2022-08-31T02:00:34.919Z,69.63
2022-08-31T02:03:07.868Z,70.30
2022-08-31T02:05:38.182Z,70.35
2022-08-31T02:08:09.625Z,70.68
2022-08-31T02:10:40.029Z,70.99
2022-08-31T02:13:08.541Z,71.86
2022-08-31T02:15:39.584Z,72.05
2022-08-31T02:18:09.565Z,70.92
2022-08-31T02:20:40.529Z,70.91
2022-08-31T02:23:08.779Z,70.93
2022-08-31T02:25:38.348Z,71.30
2022-08-31T02:28:06.436Z,71.33
2022-08-31T02:30:34.737Z,71.23
2022-08-31T02:33:03.237Z,71.75
2022-08-31T02:35:31.915Z,71.84
2022-08-31T02:38:01.409Z,72.02
2022-08-31T02:40:30.649Z,72.82
2022-08-31T02:43:00.222Z,72.57
2022-08-31T02:45:28.671Z,72.90
2022-08-31T02:48:04.110Z,72.73
2022-08-31T02:50:42.049Z,72.63
2022-08-31T02:53:10.784Z,72.69
2022-08-31T02:55:39.946Z,72.32
2022-08-31T02:58:09.768Z,72.62
2022-08-31T03:00:39.763Z,72.87
2022-08-31T03:03:08.163Z,72.39
2022-08-31T03:05:36.523Z,71.93
2022-08-31T03:08:05.326Z,71.96
2022-08-31T03:10:33.644Z,71.83
2022-08-31T03:13:02.347Z,71.72
2022-08-31T03:15:32.125Z,72.18
2022-08-31T03:18:06.721Z,72.01
2022-08-31T03:20:36.033Z,72.47
2022-08-31T03:23:04.814Z,72.52
2022-08-31T03:25:34.036Z,72.53
2022-08-31T03:28:03.103Z,72.25
2022-08-31T03:30:35.980Z,72.22
2022-08-31T03:33:09.505Z,72.00
2022-08-31T03:35:43.594Z,71.87
2022-08-31T03:38:12.846Z,72.37
2022-08-31T03:40:41.774Z,72.17
2022-08-31T03:43:11.380Z,71.97
2022-08-31T03:45:43.885Z,71.95
2022-08-31T03:48:13.430Z,72.26
2022-08-31T03:50:45.136Z,72.09
2022-08-31T03:53:25.738Z,72.65
2022-08-31T03:56:01.665Z,72.78
2022-08-31T03:58:33.213Z,73.18
2022-08-31T04:01:04.088Z,72.91
2022-08-31T04:03:52.235Z,73.22
2022-08-31T04:06:40.253Z,73.41
2022-08-31T04:09:26.798Z,73.76
2022-08-31T04:12:23.897Z,73.31
2022-08-31T04:14:55.444Z,73.40
2022-08-31T04:17:48.705Z,73.27
2022-08-31T04:20:41.419Z,73.41
2022-08-31T04:23:11.188Z,73.07
2022-08-31T04:25:47.225Z,72.87
2022-08-31T04:28:15.421Z,72.68
2022-08-31T04:30:45.048Z,72.47
2022-08-31T04:33:18.868Z,72.83
2022-08-31T04:35:49.958Z,72.72
2022-08-31T04:38:18.350Z,72.25
2022-08-31T04:40:47.410Z,72.30
2022-08-31T04:43:15.734Z,73.10
2022-08-31T04:45:46.184Z,72.84
2022-08-31T04:48:15.098Z,72.81
2022-08-31T04:50:45.559Z,72.38
2022-08-31T04:53:13.924Z,72.13
2022-08-31T04:55:43.260Z,71.86
2022-08-31T04:58:13.845Z,71.95
2022-08-31T05:00:44.409Z,71.99
2022-08-31T05:03:37.799Z,72.08
2022-08-31T05:06:12.939Z,72.21
2022-08-31T05:08:41.075Z,72.47
2022-08-31T05:11:12.338Z,73.13
2022-08-31T05:13:40.928Z,73.20
2022-08-31T05:16:12.351Z,72.81
2022-08-31T05:18:43.028Z,72.49
2022-08-31T05:21:15.234Z,72.96
2022-08-31T05:23:46.709Z,73.65
2022-08-31T05:26:23.514Z,72.92
2022-08-31T05:28:56.076Z,72.74
2022-08-31T05:31:28.229Z,72.31
2022-08-31T05:33:57.867Z,73.19
2022-08-31T05:36:37.497Z,73.01
2022-08-31T05:39:11.699Z,73.23
2022-08-31T05:41:41.043Z,72.92
2022-08-31T05:44:09.752Z,72.97
2022-08-31T05:46:41.403Z,72.41
2022-08-31T05:49:10.917Z,72.97
2022-08-31T05:51:41.094Z,73.36
2022-08-31T05:54:10.748Z,73.85
2022-08-31T05:56:41.564Z,73.61
2022-08-31T05:59:11.500Z,73.30
2022-08-31T06:01:41.566Z,73.05
2022-08-31T06:04:27.053Z,73.35
2022-08-31T06:06:57.227Z,73.32
2022-08-31T06:09:29.414Z,73.42
2022-08-31T06:11:57.726Z,74.75
2022-08-31T06:14:25.858Z,74.18
2022-08-31T06:16:56.707Z,74.03
2022-08-31T06:19:25.841Z,74.09
2022-08-31T06:21:57.374Z,74.22
2022-08-31T06:24:28.633Z,73.65
2022-08-31T06:26:59.381Z,74.13
2022-08-31T06:29:35.606Z,73.91
2022-08-31T06:32:07.999Z,73.93
2022-08-31T06:34:40.525Z,73.89
2022-08-31T06:37:18.783Z,74.13
2022-08-31T06:39:54.549Z,73.81
2022-08-31T06:42:32.883Z,73.76
2022-08-31T06:45:03.595Z,74.01
2022-08-31T06:47:56.264Z,74.82
2022-08-31T06:50:24.415Z,74.57
2022-08-31T06:52:55.568Z,74.15
2022-08-31T06:55:25.834Z,74.37
2022-08-31T06:58:12.462Z,74.66
2022-08-31T07:01:08.694Z,74.54
2022-08-31T07:03:57.533Z,74.76
2022-08-31T07:06:28.709Z,73.96
2022-08-31T07:09:03.808Z,73.16
2022-08-31T07:11:41.015Z,73.71
2022-08-31T07:14:15.621Z,73.78
2022-08-31T07:16:46.086Z,73.32
2022-08-31T07:19:16.228Z,73.30
2022-08-31T07:21:47.854Z,73.61
2022-08-31T07:24:24.123Z,74.13
2022-08-31T07:26:57.831Z,74.07
2022-08-31T07:29:40.184Z,74.58
2022-08-31T07:32:13.469Z,74.55
2022-08-31T07:34:43.979Z,74.36
2022-08-31T07:37:59.006Z,74.01
2022-08-31T07:40:50.219Z,74.35
2022-08-31T07:43:19.188Z,74.17
2022-08-31T07:45:47.572Z,74.62
2022-08-31T07:48:21.470Z,74.76
2022-08-31T07:51:05.673Z,75.22
2022-08-31T07:53:47.378Z,74.97
2022-08-31T07:56:34.699Z,75.07
2022-08-31T07:59:15.192Z,74.85
2022-08-31T08:01:45.158Z,74.89
2022-08-31T08:04:25.316Z,74.73
2022-08-31T08:07:33.729Z,74.04
2022-08-31T08:10:24.218Z,73.46
2022-08-31T08:13:07.809Z,73.57
2022-08-31T08:15:48.551Z,73.45
2022-08-31T08:18:27.118Z,73.69
2022-08-31T08:20:59.403Z,74.06
2022-08-31T08:23:29.121Z,74.14
2022-08-31T08:26:21.429Z,74.03
2022-08-31T08:29:22.107Z,74.49
2022-08-31T08:31:53.002Z,74.93
2022-08-31T08:34:29.587Z,74.85
2022-08-31T08:37:01.660Z,74.39
2022-08-31T08:39:30.301Z,73.52
2022-08-31T08:42:15.682Z,73.43
2022-08-31T08:44:45.735Z,73.11
2022-08-31T08:47:38.499Z,72.64
2022-08-31T08:50:09.018Z,72.81
2022-08-31T08:52:43.282Z,72.98
2022-08-31T08:55:16.775Z,72.56
2022-08-31T08:57:52.282Z,72.57
2022-08-31T09:00:25.392Z,72.63
2022-08-31T09:03:02.150Z,72.29
2022-08-31T09:06:02.839Z,71.89
2022-08-31T09:09:09.452Z,72.15
2022-08-31T09:11:55.402Z,72.70
2022-08-31T09:14:39.244Z,72.97
2022-08-31T09:17:17.995Z,72.88
2022-08-31T09:20:01.675Z,72.79
2022-08-31T09:22:35.035Z,73.47
2022-08-31T09:25:04.527Z,74.30
2022-08-31T09:27:58.137Z,73.20
2022-08-31T09:30:52.159Z,72.45
2022-08-31T09:33:24.947Z,72.93
2022-08-31T09:35:56.820Z,72.62
2022-08-31T09:38:31.412Z,72.50
2022-08-31T09:41:02.078Z,73.10
2022-08-31T09:43:38.571Z,73.08
2022-08-31T09:46:12.627Z,73.27
2022-08-31T09:48:51.328Z,73.29
2022-08-31T09:51:28.175Z,73.15
2022-08-31T09:54:17.998Z,72.77
2022-08-31T09:56:55.432Z,72.84
2022-08-31T09:59:41.888Z,72.41
2022-08-31T10:02:28.646Z,72.74
2022-08-31T10:05:03.830Z,71.99
2022-08-31T10:07:43.150Z,71.97
2022-08-31T10:10:24.269Z,71.87
2022-08-31T10:13:04.361Z,71.83
2022-08-31T10:15:41.139Z,71.96
2022-08-31T10:18:16.012Z,71.84
2022-08-31T10:20:55.901Z,71.50
2022-08-31T10:23:34.716Z,72.29
2022-08-31T10:26:09.036Z,71.72
2022-08-31T10:28:44.802Z,71.35
2022-08-31T10:31:22.303Z,70.82
2022-08-31T10:34:18.151Z,70.60
2022-08-31T10:36:50.147Z,71.05
2022-08-31T10:39:29.525Z,70.97
2022-08-31T10:42:04.227Z,71.35
2022-08-31T10:44:42.137Z,71.63
2022-08-31T10:47:32.609Z,70.29
2022-08-31T10:50:04.690Z,69.62
2022-08-31T10:52:43.939Z,69.46
2022-08-31T10:55:23.475Z,69.51
2022-08-31T10:57:59.093Z,70.94
2022-08-31T11:00:42.545Z,71.14
2022-08-31T11:03:22.179Z,70.80
2022-08-31T11:06:00.307Z,69.61
2022-08-31T11:08:49.939Z,70.31
2022-08-31T11:11:27.429Z,71.50
2022-08-31T11:14:17.967Z,70.69
2022-08-31T11:17:20.431Z,70.08
2022-08-31T11:20:21.345Z,71.21
2022-08-31T11:23:42.214Z,70.68
2022-08-31T11:26:52.861Z,70.13
2022-08-31T11:29:35.471Z,71.33
2022-08-31T11:32:16.737Z,71.27
2022-08-31T11:34:51.420Z,70.82
2022-08-31T11:37:52.266Z,71.03
2022-08-31T11:41:03.028Z,69.94
2022-08-31T11:43:51.949Z,69.75
2022-08-31T11:47:05.793Z,69.47
2022-08-31T11:49:44.852Z,68.59
2022-08-31T11:52:43.301Z,69.32
2022-08-31T11:55:31.336Z,69.63
2022-08-31T11:58:25.926Z,68.95
2022-08-31T12:01:03.073Z,68.53
2022-08-31T12:03:51.369Z,68.34
2022-08-31T12:07:09.128Z,69.24
2022-08-31T12:10:03.365Z,67.73
2022-08-31T12:12:49.457Z,68.36
2022-08-31T12:15:27.691Z,68.18
2022-08-31T12:18:18.714Z,69.07
2022-08-31T12:21:16.956Z,67.75
2022-08-31T12:24:03.601Z,66.96
2022-08-31T12:26:52.818Z,67.65
2022-08-31T12:29:29.368Z,68.38
2022-08-31T12:32:24.082Z,68.36
2022-08-31T12:35:05.776Z,67.81
2022-08-31T12:37:37.246Z,67.68
2022-08-31T12:40:14.913Z,67.18
2022-08-31T12:43:01.495Z,67.08
2022-08-31T12:46:31.945Z,66.93
2022-08-31T12:49:22.925Z,66.37
2022-08-31T12:52:01.287Z,65.63
2022-08-31T12:55:23.475Z,65.39
2022-08-31T12:58:11.449Z,65.89
2022-08-31T13:00:43.416Z,66.44
2022-08-31T13:03:22.419Z,66.96
2022-08-31T13:06:08.301Z,67.30
2022-08-31T13:08:43.616Z,67.04
2022-08-31T13:11:20.836Z,65.93
2022-08-31T13:13:52.835Z,65.32
2022-08-31T13:16:21.890Z,64.77
2022-08-31T13:19:05.364Z,66.66
2022-08-31T13:21:34.578Z,65.20
2022-08-31T13:24:11.608Z,65.70
2022-08-31T13:26:39.768Z,64.58
2022-08-31T13:29:10.066Z,64.05
2022-08-31T13:31:50.058Z,63.85
2022-08-31T13:34:19.207Z,64.53
2022-08-31T13:36:53.716Z,64.15
2022-08-31T13:39:28.726Z,63.69
2022-08-31T13:42:05.899Z,62.78
2022-08-31T13:44:39.918Z,62.84
2022-08-31T13:47:23.103Z,62.18
2022-08-31T13:49:55.829Z,64.84
2022-08-31T13:52:29.180Z,63.87
2022-08-31T13:55:05.448Z,63.72
2022-08-31T13:57:35.845Z,62.90
2022-08-31T14:00:34.352Z,63.78
2022-08-31T14:03:45.611Z,63.28
2022-08-31T14:06:24.614Z,63.90
2022-08-31T14:09:00.236Z,65.13
2022-08-31T14:11:29.765Z,64.54
2022-08-31T14:14:07.442Z,63.92
2022-08-31T14:16:38.761Z,63.59
2022-08-31T14:19:10.654Z,64.28
2022-08-31T14:21:42.060Z,63.75
2022-08-31T14:24:12.193Z,64.00
2022-08-31T14:26:44.798Z,64.40
2022-08-31T14:29:15.921Z,63.38
2022-08-31T14:31:48.572Z,62.15
2022-08-31T14:34:24.846Z,62.75
2022-08-31T14:37:02.179Z,63.26
2022-08-31T14:39:32.835Z,63.09
2022-08-31T14:42:08.127Z,61.88
2022-08-31T14:44:42.048Z,61.69
2022-08-31T14:47:11.641Z,61.38
2022-08-31T14:49:41.114Z,63.37
2022-08-31T14:52:09.462Z,64.77
2022-08-31T14:54:38.179Z,65.24
2022-08-31T14:57:12.695Z,65.41
2022-08-31T15:02:16.268Z,64.73
2022-08-31T15:04:45.321Z,64.48
2022-08-31T15:07:15.619Z,64.21
2022-08-31T15:09:46.723Z,64.77
2022-08-31T15:12:16.641Z,64.08
2022-08-31T15:14:47.120Z,64.79
2022-08-31T15:17:19.190Z,65.12
2022-08-31T15:19:50.577Z,64.59
2022-08-31T15:22:19.414Z,63.19
2022-08-31T15:24:48.003Z,62.86
2022-08-31T15:27:18.253Z,62.77
2022-08-31T15:29:50.883Z,62.97
2022-08-31T15:32:19.196Z,62.61
2022-08-31T15:34:56.828Z,62.45
2022-08-31T15:37:27.287Z,61.21
2022-08-31T15:40:00.692Z,62.38
2022-08-31T15:42:31.364Z,62.48
2022-08-31T15:45:00.336Z,61.99
2022-08-31T15:47:50.021Z,62.12
2022-08-31T15:50:23.189Z,62.24
2022-08-31T15:52:56.167Z,61.77
2022-08-31T15:55:26.525Z,62.81
2022-08-31T15:57:59.305Z,62.03
2022-08-31T16:00:32.716Z,61.19
2022-08-31T16:03:02.084Z,60.30
2022-08-31T16:05:34.992Z,62.33
2022-08-31T16:08:04.165Z,61.97
2022-08-31T16:10:32.429Z,64.34
2022-08-31T16:13:03.137Z,64.56
2022-08-31T16:15:33.064Z,65.02
2022-08-31T16:18:05.767Z,64.23
2022-08-31T16:20:34.935Z,63.83
2022-08-31T16:23:07.041Z,64.08
2022-08-31T16:25:48.240Z,64.91
2022-08-31T16:28:20.483Z,64.48
2022-08-31T16:30:51.394Z,65.17
2022-08-31T16:33:20.552Z,65.17
2022-08-31T16:35:48.853Z,65.08
2022-08-31T16:38:17.043Z,65.54
2022-08-31T16:40:45.599Z,65.16
2022-08-31T16:43:20.206Z,65.14
2022-08-31T16:45:48.348Z,65.86
2022-08-31T16:48:34.185Z,66.33
2022-08-31T16:51:02.660Z,66.25
2022-08-31T16:53:32.470Z,66.60
2022-08-31T16:56:03.077Z,66.75
2022-08-31T16:58:51.239Z,66.36
2022-08-31T17:01:23.929Z,66.22
2022-08-31T17:03:55.873Z,66.91
2022-08-31T17:06:24.866Z,66.52
2022-08-31T17:08:57.357Z,65.41
2022-08-31T17:11:31.394Z,65.26
2022-08-31T17:14:04.226Z,65.17
2022-08-31T17:16:36.238Z,65.49
2022-08-31T17:19:08.363Z,65.35
2022-08-31T17:21:49.452Z,65.59
2022-08-31T17:24:21.752Z,66.29
2022-08-31T17:26:51.916Z,66.43
2022-08-31T17:29:23.533Z,66.71
2022-08-31T17:31:53.385Z,66.99
2022-08-31T17:34:26.892Z,67.05
2022-08-31T17:36:58.499Z,67.53
2022-08-31T17:39:28.062Z,67.56
2022-08-31T17:41:57.937Z,67.87
2022-08-31T17:44:30.968Z,68.12
2022-08-31T17:47:01.612Z,67.45
2022-08-31T17:49:32.024Z,67.55
2022-08-31T17:52:08.444Z,67.98
2022-08-31T17:54:40.243Z,68.06
2022-08-31T17:57:11.582Z,67.51
2022-08-31T17:59:43.858Z,67.30
2022-08-31T18:02:16.063Z,66.95
2022-08-31T18:04:45.122Z,67.03
2022-08-31T18:07:13.627Z,66.19
2022-08-31T18:09:45.466Z,66.15
2022-08-31T18:12:15.279Z,66.05
2022-08-31T18:14:45.280Z,66.85
2022-08-31T18:17:17.156Z,67.12
2022-08-31T18:19:46.011Z,67.29
2022-08-31T18:22:14.861Z,67.06
2022-08-31T18:24:43.838Z,67.18
2022-08-31T18:27:15.084Z,66.95
2022-08-31T18:29:46.053Z,67.28
2022-08-31T18:32:15.059Z,67.40
2022-08-31T18:34:46.212Z,67.70
2022-08-31T18:37:16.416Z,67.46
2022-08-31T18:39:59.592Z,67.71
2022-08-31T18:42:47.280Z,67.62
2022-08-31T18:45:18.279Z,67.99
2022-08-31T18:48:07.046Z,68.38
2022-08-31T18:50:37.520Z,68.70
2022-08-31T18:53:11.184Z,68.41
2022-08-31T18:55:44.044Z,68.52
2022-08-31T18:58:12.702Z,68.61
2022-08-31T19:00:42.883Z,68.41
2022-08-31T19:03:11.206Z,68.46
2022-08-31T19:05:41.174Z,69.06
2022-08-31T19:08:09.335Z,68.99
2022-08-31T19:10:37.535Z,69.32
2022-08-31T19:13:07.668Z,69.25
2022-08-31T19:15:41.300Z,69.33
2022-08-31T19:18:09.594Z,69.38
2022-08-31T19:20:38.485Z,69.78
2022-08-31T19:23:08.105Z,69.22
2022-08-31T19:25:43.342Z,69.43
2022-08-31T19:28:12.321Z,69.45
2022-08-31T19:30:47.586Z,69.54
2022-08-31T19:33:16.222Z,69.42
2022-08-31T19:35:45.073Z,69.37
2022-08-31T19:38:14.188Z,70.60
2022-08-31T19:40:42.487Z,70.13
2022-08-31T19:46:16.225Z,70.30
2022-08-31T19:48:46.089Z,70.54
2022-08-31T19:51:16.558Z,70.94
2022-08-31T19:53:46.044Z,70.98
2022-08-31T19:56:17.552Z,70.44
2022-08-31T19:58:48.324Z,70.15
2022-08-31T20:01:19.638Z,70.20
2022-08-31T20:03:49.136Z,70.27
2022-08-31T20:06:20.724Z,69.95
2022-08-31T20:08:50.899Z,70.14
2022-08-31T20:11:24.726Z,69.90
2022-08-31T20:13:53.198Z,70.10
2022-08-31T20:16:24.492Z,69.63
2022-08-31T20:19:05.917Z,69.50
2022-08-31T20:21:35.628Z,68.88
2022-08-31T20:24:07.608Z,68.95
2022-08-31T20:26:47.436Z,69.13
2022-08-31T20:29:21.414Z,68.94
2022-08-31T20:31:55.219Z,68.39
2022-08-31T20:34:28.715Z,69.01
2022-08-31T20:37:01.310Z,69.28
2022-08-31T20:39:32.388Z,70.00
2022-08-31T20:42:03.050Z,69.54
2022-08-31T20:44:34.743Z,69.38
2022-08-31T20:47:25.970Z,69.87
2022-08-31T20:49:56.185Z,69.96
2022-08-31T20:52:27.341Z,70.18
2022-08-31T20:55:01.792Z,69.93
2022-08-31T20:57:32.768Z,70.02
2022-08-31T21:00:02.805Z,69.75
2022-08-31T21:02:34.325Z,69.68
2022-08-31T21:07:52.294Z,70.10
2022-08-31T21:10:36.090Z,70.55
2022-08-31T21:13:09.034Z,69.75
2022-08-31T21:15:42.741Z,70.44
2022-08-31T21:18:15.993Z,70.50
2022-08-31T21:20:44.873Z,70.03
2022-08-31T21:23:13.301Z,70.25
2022-08-31T21:25:43.914Z,70.25
2022-08-31T21:28:15.572Z,70.54
2022-08-31T21:30:43.856Z,70.83
2022-08-31T21:33:13.305Z,69.99
2022-08-31T21:35:41.355Z,69.70
2022-08-31T21:38:12.908Z,69.75
2022-08-31T21:40:49.183Z,69.12
2022-08-31T21:43:17.482Z,69.63
2022-08-31T21:45:45.531Z,69.84
2022-08-31T21:48:14.955Z,69.85
2022-08-31T21:50:43.141Z,69.88
2022-08-31T21:53:11.857Z,69.67
2022-08-31T21:55:39.989Z,68.92
2022-08-31T21:58:08.028Z,69.07
2022-08-31T22:00:41.737Z,69.29
2022-08-31T22:03:10.524Z,69.34
2022-08-31T22:05:43.393Z,68.90
2022-08-31T22:08:11.585Z,68.29
2022-08-31T22:10:42.301Z,67.79
2022-08-31T22:13:13.045Z,67.81
2022-08-31T22:15:42.737Z,68.18
2022-08-31T22:18:58.189Z,67.97
2022-08-31T22:21:01.736Z,67.91
2022-08-31T22:23:29.953Z,67.92
2022-08-31T22:25:57.994Z,67.90
2022-08-31T22:28:27.511Z,67.67
2022-08-31T22:30:56.023Z,67.69
2022-08-31T22:33:24.155Z,67.98
2022-08-31T22:35:52.229Z,67.89
2022-08-31T22:38:21.733Z,67.58
2022-08-31T22:40:50.762Z,68.21
2022-08-31T22:43:18.942Z,69.12
2022-08-31T22:45:48.807Z,68.71
2022-08-31T22:48:17.570Z,68.91
2022-08-31T22:50:45.770Z,68.84
2022-08-31T22:53:14.747Z,68.81
2022-08-31T22:55:44.348Z,68.67
2022-08-31T22:58:13.681Z,68.23
2022-08-31T23:00:45.350Z,67.74
2022-08-31T23:03:14.778Z,67.13
2022-08-31T23:05:44.028Z,66.87
2022-08-31T23:08:13.761Z,67.01
2022-08-31T23:10:42.976Z,67.90
2022-08-31T23:13:12.409Z,67.95
2022-08-31T23:15:41.085Z,68.56
2022-08-31T23:18:10.407Z,69.30
2022-08-31T23:20:41.749Z,68.61
2022-08-31T23:23:10.450Z,67.76
2022-08-31T23:25:40.896Z,67.96
2022-08-31T23:28:09.653Z,67.95
2022-08-31T23:30:44.621Z,67.79
2022-08-31T23:33:12.774Z,67.64
2022-08-31T23:35:41.044Z,68.62
2022-08-31T23:38:09.079Z,68.47
2022-08-31T23:40:37.259Z,68.11
2022-08-31T23:43:07.923Z,68.23
2022-08-31T23:45:40.993Z,68.15
2022-08-31T23:48:09.352Z,68.20
2022-08-31T23:50:37.559Z,68.34
2022-08-31T23:53:17.297Z,67.99
2022-08-31T23:55:46.155Z,68.17
2022-08-31T23:58:16.089Z,68.38
